Huvudsida
METAR-TAF:

METAR-TAF

Flygplatser :

Notoddens flygplats. Tuven

Notoddens, Norge

latitud: 59-34N, longitud: 009-13E, höjd: 19 m

Aktuellt väderrapport

Denna rapport gjordes för 1 timme och 4 minuter sedan, klockan 08:50 UTC
Vind 2 kt varierande vindriktning
Temperatur 11°C
Fuktighet 87%
Tryck 1021 hPa
Sikt 10 km eller mer
Få moln på en höjd av 400 ft
Brutna moln på en höjd av 1900 ft

METAR: ENNO 230850Z VRB02KT 9999 FEW004 BKN019 11/09 Q1021

Tid: 11:54 (09:54 UTC)

Väderprognos

Denna rapport gjordes för 1 timme och 54 minuter sedan, klockan 08:00 UTC
Prognos gäller från 23 kl. 09 UTC till 23 kl. 17 UTC
Vind 5 kt varierande vindriktning
Sikt 10 km eller mer
Brutna moln på en höjd av 1800 ft
lätt duggregn

TAF: ENNO 230800Z 2309/2317 VRB05KT 9999 -DZ BKN018

Aktuella väderrapporter och prognoser från 4000 flygplatser (METAR- och TAF-rapporter).

De tillgängliga stationerna syns som gula och röda prickar på kartan.

För musen över prickarna för att se namnen på stationerna.

Klicka sedan för att få väderrapporter och prognoser.

För att ändra kartan: Klicka på de gröna knapparna med ett svart kors på för att zooma in; den gröna knappen med ett streck på för att zooma ut; eller på de gröna pilarna för angränsande kartor.


METAR-TAF: